Spokane, WA (99216)

9:59 PM PDT on July 25, 2016 (GMT -0700)
Broadway Ave | | Change Station

Elev 2057 ft 47.66 °N, 117.19 °W | Updated 38 seconds ago

Clear
Clear
75.2 °F
Feels Like 78 °F
N
0.0
Wind Variable Wind from NE
Gusts 0.0 mph

Today
High -- | Low -- °F
--% Chance of Precip.
Yesterday
High -- | Low -- °F
Precip. -- in
Pressure 29.90 in
Visibility 10.0 miles
Clouds Clear
Heat Index 78 °F
Dew Point 51 °F
Humidity 43%
Rainfall 0.00 in
Snow Depth Not available.
5:18 AM 8:31 PM
Waning Gibbous, 59% visible
METAR KSFF 260453Z AUTO 04004KT 10SM CLR 23/11 A2995 RMK AO2 SLP125 T02280106
Pressure 29.90 in
Visibility 10.0 miles
Clouds Clear
Heat Index 78 °F
Dew Point 51 °F
Humidity 43%
Rainfall 0.00 in
Snow Depth Not available.
5:18 AM 8:31 PM
Waning Gibbous, 59% visible
METAR KSFF 260453Z AUTO 04004KT 10SM CLR 23/11 A2995 RMK AO2 SLP125 T02280106

10-Day Weather Forecast

Almanac

Astronomy

Jul. 25, 2016 Rise Set
Actual Time
Civil Twilight
Nautical Twilight
Astronomical Twilight
Moon
Length of Visible Light
Length of Day
Tomorrow will be .
, % of the Moon is Illuminated

Today's Extremes

State Highs State Lows

Community

WunderPhotos

Upload Photos

1,927,536 photos uploaded!

WunderBlog® & News

Nearby

Air Quality

  Air Quality AQ Index Pollutant
Not available.

Snow Depth

Station Depth Elevation

Earthquake Activity

City Distance Mag. Time & Date
Minimum magnitude displayed is 2.5.

Coastal Water Temperatures

Place Temperature

Stations

Nearby Weather Stations

Station Location Temp. Windchill Dew Point Humidity Wind Precip. Elev Updated Type
                   

Watches & Warnings

There are currently no watches in effect.